createdAt,value
2019-03-04T00:01:12.536Z,13.81
2019-03-04T00:03:45.388Z,13.79
2019-03-04T00:06:17.035Z,13.77
2019-03-04T00:08:48.697Z,13.75
2019-03-04T00:11:20.472Z,13.73
2019-03-04T00:13:52.540Z,13.73
2019-03-04T00:16:25.743Z,13.76
2019-03-04T00:18:58.090Z,13.81
2019-03-04T00:21:31.107Z,13.87
2019-03-04T00:24:04.309Z,13.94
2019-03-04T00:26:36.024Z,14.00
2019-03-04T00:29:08.065Z,14.05
2019-03-04T00:31:39.743Z,14.09
2019-03-04T00:34:12.294Z,14.13
2019-03-04T00:36:43.976Z,14.15
2019-03-04T00:39:15.674Z,14.18
2019-03-04T00:41:48.607Z,14.19
2019-03-04T00:44:20.932Z,14.22
2019-03-04T00:46:53.580Z,14.22
2019-03-04T00:49:27.084Z,14.21
2019-03-04T00:51:59.154Z,14.18
2019-03-04T00:54:32.518Z,14.16
2019-03-04T00:57:04.908Z,14.11
2019-03-04T00:59:37.323Z,14.05
2019-03-04T01:02:09.172Z,13.95
2019-03-04T01:04:40.961Z,13.84
2019-03-04T01:07:14.377Z,13.77
2019-03-04T01:09:46.175Z,13.70
2019-03-04T01:12:19.367Z,13.62
2019-03-04T01:14:53.273Z,13.55
2019-03-04T01:17:25.551Z,13.47
2019-03-04T01:19:58.273Z,13.45
2019-03-04T01:22:29.922Z,13.46
2019-03-04T01:25:03.465Z,13.50
2019-03-04T01:27:37.498Z,13.52
2019-03-04T01:30:23.720Z,13.53
2019-03-04T01:32:55.977Z,13.50
2019-03-04T01:35:27.639Z,13.46
2019-03-04T01:37:59.860Z,13.46
2019-03-04T01:40:32.680Z,13.42
2019-03-04T01:43:05.721Z,13.36
2019-03-04T01:45:39.764Z,13.31
2019-03-04T01:48:12.690Z,13.25
2019-03-04T01:50:45.263Z,13.22
2019-03-04T01:53:17.801Z,13.20
2019-03-04T01:55:50.694Z,13.19
2019-03-04T01:58:23.356Z,13.19
2019-03-04T02:00:57.303Z,13.17
2019-03-04T02:03:39.660Z,13.15
2019-03-04T02:06:11.374Z,13.14
2019-03-04T02:08:43.141Z,13.13
2019-03-04T02:11:15.336Z,13.15
2019-03-04T02:13:47.059Z,13.20
2019-03-04T02:16:18.839Z,13.27
2019-03-04T02:18:51.799Z,13.33
2019-03-04T02:21:24.824Z,13.40
2019-03-04T02:23:56.986Z,13.47
2019-03-04T02:26:31.602Z,13.53
2019-03-04T02:29:04.839Z,13.60
2019-03-04T02:31:38.364Z,13.65
2019-03-04T02:34:11.358Z,13.69
2019-03-04T02:36:44.103Z,13.70
2019-03-04T02:39:16.699Z,13.66
2019-03-04T02:41:49.047Z,13.65
2019-03-04T02:44:22.255Z,13.61
2019-03-04T02:46:54.963Z,13.56
2019-03-04T02:49:27.716Z,13.54
2019-03-04T02:51:59.913Z,13.55
2019-03-04T02:54:31.680Z,13.53
2019-03-04T02:57:03.888Z,13.50
2019-03-04T02:59:35.783Z,13.47
2019-03-04T03:02:09.203Z,13.42
2019-03-04T03:04:41.643Z,13.38
2019-03-04T03:07:14.433Z,13.34
2019-03-04T03:09:46.089Z,13.29
2019-03-04T03:12:17.712Z,13.27
2019-03-04T03:14:49.653Z,13.22
2019-03-04T03:17:21.258Z,13.22
2019-03-04T03:19:55.388Z,13.21
2019-03-04T03:22:27.011Z,13.18
2019-03-04T03:24:59.073Z,13.14
2019-03-04T03:27:30.860Z,13.13
2019-03-04T03:30:02.562Z,13.12
2019-03-04T03:32:34.688Z,13.10
2019-03-04T03:35:08.755Z,13.08
2019-03-04T03:37:41.453Z,13.10
2019-03-04T03:40:15.356Z,13.13
2019-03-04T03:42:48.321Z,13.17
2019-03-04T03:45:21.021Z,13.20
2019-03-04T03:47:53.922Z,13.20
2019-03-04T03:50:28.741Z,13.21
2019-03-04T03:53:00.718Z,13.22
2019-03-04T03:55:34.104Z,13.25
2019-03-04T03:58:06.136Z,13.28
2019-03-04T04:00:38.135Z,13.33
2019-03-04T04:03:09.836Z,13.36
2019-03-04T04:05:42.460Z,13.38
2019-03-04T04:08:15.283Z,13.36
2019-03-04T04:10:50.179Z,13.33
2019-03-04T04:13:21.900Z,13.29
2019-03-04T04:15:53.817Z,13.28
2019-03-04T04:18:28.035Z,13.29
2019-03-04T04:21:00.057Z,13.28
2019-03-04T04:23:31.696Z,13.30
2019-03-04T04:26:05.647Z,13.34
2019-03-04T04:28:38.170Z,13.38
2019-03-04T04:31:10.925Z,13.42
2019-03-04T04:33:43.572Z,13.45
2019-03-04T04:36:15.401Z,13.46
2019-03-04T04:38:47.427Z,13.43
2019-03-04T04:41:19.270Z,13.40
2019-03-04T04:43:51.741Z,13.39
2019-03-04T04:46:51.680Z,13.39
2019-03-04T04:49:25.031Z,13.39
2019-03-04T04:51:57.651Z,13.33
2019-03-04T04:54:29.580Z,13.27
2019-03-04T04:57:01.212Z,13.24
2019-03-04T04:59:33.961Z,13.23
2019-03-04T05:02:05.841Z,13.21
2019-03-04T05:04:39.536Z,13.22
2019-03-04T05:07:11.178Z,13.20
2019-03-04T05:09:43.067Z,13.14
2019-03-04T05:12:16.378Z,13.08
2019-03-04T05:14:49.038Z,13.04
2019-03-04T05:17:20.823Z,13.03
2019-03-04T05:19:54.005Z,13.02
2019-03-04T05:22:27.231Z,13.00
2019-03-04T05:24:59.019Z,12.93
2019-03-04T05:27:30.899Z,12.87
2019-03-04T05:30:03.276Z,12.86
2019-03-04T05:32:35.302Z,12.81
2019-03-04T05:35:07.045Z,12.76
2019-03-04T05:37:39.535Z,12.72
2019-03-04T05:40:14.481Z,12.68
2019-03-04T05:42:46.616Z,12.68
2019-03-04T05:45:20.165Z,12.68
2019-03-04T05:47:52.400Z,12.68
2019-03-04T05:50:24.973Z,12.71
2019-03-04T05:52:57.133Z,12.73
2019-03-04T05:55:29.012Z,12.77
2019-03-04T05:58:00.683Z,12.76
2019-03-04T06:00:38.313Z,12.76
2019-03-04T06:03:12.223Z,12.75
2019-03-04T06:05:43.907Z,12.73
2019-03-04T06:08:16.064Z,12.71
2019-03-04T06:10:48.024Z,12.71
2019-03-04T06:13:20.300Z,12.72
2019-03-04T06:15:53.115Z,12.75
2019-03-04T06:18:24.815Z,12.76
2019-03-04T06:20:56.926Z,12.76
2019-03-04T06:23:29.188Z,12.75
2019-03-04T06:26:01.096Z,12.71
2019-03-04T06:28:33.151Z,12.69
2019-03-04T06:31:05.002Z,12.71
2019-03-04T06:33:36.628Z,12.74
2019-03-04T06:36:08.577Z,12.73
2019-03-04T06:38:40.667Z,12.70
2019-03-04T06:41:12.366Z,12.68
2019-03-04T06:43:44.257Z,12.66
2019-03-04T06:46:18.682Z,12.65
2019-03-04T06:48:50.875Z,12.70
2019-03-04T06:51:43.431Z,12.80
2019-03-04T06:55:00.754Z,12.93
2019-03-04T06:57:43.610Z,13.06
2019-03-04T07:00:58.156Z,13.19
2019-03-04T07:03:34.307Z,13.32
2019-03-04T07:06:06.187Z,13.47
2019-03-04T07:09:12.941Z,13.61
2019-03-04T07:11:52.254Z,13.74
2019-03-04T07:14:24.227Z,13.89
2019-03-04T07:16:56.012Z,14.00
2019-03-04T07:19:34.568Z,14.11
2019-03-04T07:22:07.827Z,14.22
2019-03-04T07:24:39.577Z,14.32
2019-03-04T07:27:13.072Z,14.43
2019-03-04T07:29:44.818Z,14.53
2019-03-04T07:32:16.989Z,14.60
2019-03-04T07:34:49.071Z,14.67
2019-03-04T07:37:20.706Z,14.67
2019-03-04T07:39:53.132Z,14.65
2019-03-04T07:42:25.024Z,14.55
2019-03-04T07:44:57.560Z,14.41
2019-03-04T07:47:29.594Z,14.31
2019-03-04T07:50:02.624Z,14.23
2019-03-04T07:52:34.592Z,14.16
2019-03-04T07:55:07.733Z,14.09
2019-03-04T07:57:39.774Z,14.06
2019-03-04T08:00:12.912Z,14.09
2019-03-04T08:02:44.832Z,14.13
2019-03-04T08:05:18.354Z,14.18
2019-03-04T08:07:52.646Z,14.27
2019-03-04T08:11:11.780Z,14.31
2019-03-04T08:13:49.855Z,14.36
2019-03-04T08:16:21.524Z,14.38
2019-03-04T08:18:53.645Z,14.41
2019-03-04T08:21:25.764Z,14.44
2019-03-04T08:23:58.890Z,14.43
2019-03-04T08:26:30.707Z,14.45
2019-03-04T08:29:04.330Z,14.46
2019-03-04T08:31:38.209Z,14.47
2019-03-04T08:34:10.180Z,14.46
2019-03-04T08:36:42.533Z,14.54
2019-03-04T08:39:14.839Z,14.55
2019-03-04T08:41:47.186Z,14.57
2019-03-04T08:44:18.903Z,14.59
2019-03-04T08:46:50.988Z,14.59
2019-03-04T08:49:24.228Z,14.61
2019-03-04T08:51:57.289Z,14.62
2019-03-04T08:54:29.799Z,14.63
2019-03-04T08:57:04.192Z,14.64
2019-03-04T08:59:34.963Z,14.67
2019-03-04T09:02:09.348Z,14.69
2019-03-04T09:04:41.063Z,14.72
2019-03-04T09:07:13.336Z,14.75
2019-03-04T09:09:45.672Z,14.78
2019-03-04T09:12:18.522Z,14.80
2019-03-04T09:14:51.341Z,14.81
2019-03-04T09:17:23.851Z,14.85
2019-03-04T09:19:55.916Z,14.88
2019-03-04T09:22:28.688Z,14.88
2019-03-04T09:25:01.020Z,14.88
2019-03-04T09:27:34.127Z,14.89
2019-03-04T09:30:07.228Z,14.92
2019-03-04T09:32:38.994Z,14.94
2019-03-04T09:35:12.365Z,14.96
2019-03-04T09:37:44.160Z,14.98
2019-03-04T09:40:17.466Z,15.01
2019-03-04T09:42:50.822Z,15.05
2019-03-04T09:45:22.834Z,15.05
2019-03-04T09:47:55.206Z,15.05
2019-03-04T09:50:26.951Z,15.03
2019-03-04T09:52:58.652Z,15.03
2019-03-04T09:55:31.004Z,15.05
2019-03-04T09:58:02.787Z,15.09
2019-03-04T10:01:23.184Z,15.16
2019-03-04T10:05:02.561Z,15.21
2019-03-04T10:07:56.712Z,15.26
2019-03-04T10:11:21.263Z,15.32
2019-03-04T10:14:41.662Z,15.38
2019-03-04T10:17:39.315Z,15.43
2019-03-04T10:20:51.631Z,15.47
2019-03-04T10:24:19.941Z,15.47
2019-03-04T10:27:31.951Z,15.45
2019-03-04T10:30:58.959Z,15.32
2019-03-04T10:34:51.952Z,15.30
2019-03-04T10:38:33.101Z,15.15
2019-03-04T10:41:48.523Z,14.98
2019-03-04T10:45:24.278Z,14.82
2019-03-04T10:47:56.301Z,14.72
2019-03-04T10:50:29.024Z,14.65
2019-03-04T10:53:00.789Z,14.63
2019-03-04T10:55:41.612Z,14.61
2019-03-04T10:58:07.707Z,14.57
2019-03-04T11:00:40.502Z,14.45
2019-03-04T11:03:12.420Z,14.36
2019-03-04T11:05:45.987Z,14.30
2019-03-04T11:08:18.146Z,14.25
2019-03-04T11:10:50.293Z,14.21
2019-03-04T11:13:22.481Z,14.21
2019-03-04T11:15:54.482Z,14.21
2019-03-04T11:18:26.371Z,14.24
2019-03-04T11:20:58.784Z,14.32
2019-03-04T11:23:31.119Z,14.37
2019-03-04T11:26:03.063Z,14.44
2019-03-04T11:28:35.300Z,14.51
2019-03-04T11:31:07.414Z,14.56
2019-03-04T11:33:39.296Z,14.61
2019-03-04T11:36:11.727Z,14.67
2019-03-04T11:38:47.154Z,14.73
2019-03-04T11:41:21.776Z,14.78
2019-03-04T11:43:53.472Z,14.82
2019-03-04T11:46:26.136Z,14.85
2019-03-04T11:48:58.424Z,14.84
2019-03-04T11:51:30.082Z,14.87
2019-03-04T11:54:04.180Z,14.90
2019-03-04T11:56:35.833Z,14.90
2019-03-04T11:59:07.571Z,14.90
2019-03-04T12:01:46.037Z,14.90
2019-03-04T12:04:19.530Z,14.94
2019-03-04T12:06:52.828Z,15.01
2019-03-04T12:09:24.588Z,15.07
2019-03-04T12:11:57.379Z,15.11
2019-03-04T12:14:29.454Z,15.12
2019-03-04T12:17:01.265Z,15.15
2019-03-04T12:19:33.581Z,15.20
2019-03-04T12:22:06.189Z,15.23
2019-03-04T12:24:40.447Z,15.26
2019-03-04T12:27:13.556Z,15.32
2019-03-04T12:29:45.980Z,15.35
2019-03-04T12:32:29.032Z,15.39
2019-03-04T12:35:01.208Z,15.40
2019-03-04T12:37:34.530Z,15.40
2019-03-04T12:40:09.293Z,15.46
2019-03-04T12:42:41.265Z,15.52
2019-03-04T12:45:15.488Z,15.55
2019-03-04T12:47:49.257Z,15.57
2019-03-04T12:50:24.823Z,15.58
2019-03-04T12:52:57.554Z,15.59
2019-03-04T12:55:31.242Z,15.62
2019-03-04T12:58:03.605Z,15.65
2019-03-04T13:00:36.527Z,15.68
2019-03-04T13:03:17.318Z,15.73
2019-03-04T13:05:49.722Z,15.77
2019-03-04T13:08:21.758Z,15.81
2019-03-04T13:10:53.990Z,15.82
2019-03-04T13:13:26.664Z,15.79
2019-03-04T13:16:00.595Z,15.75
2019-03-04T13:18:32.716Z,15.75
2019-03-04T13:21:04.467Z,15.76
2019-03-04T13:23:36.114Z,15.73
2019-03-04T13:26:09.623Z,15.73
2019-03-04T13:28:42.421Z,15.72
2019-03-04T13:31:14.256Z,15.66
2019-03-04T13:33:46.005Z,15.61
2019-03-04T13:36:19.440Z,15.54
2019-03-04T13:38:51.196Z,15.45
2019-03-04T13:41:22.905Z,15.36
2019-03-04T13:43:55.444Z,15.30
2019-03-04T13:46:27.084Z,15.26
2019-03-04T13:48:59.125Z,15.28
2019-03-04T13:51:31.080Z,15.32
2019-03-04T13:54:03.046Z,15.42
2019-03-04T13:56:35.322Z,15.52
2019-03-04T13:59:07.941Z,15.62
2019-03-04T14:01:39.607Z,15.72
2019-03-04T14:04:11.639Z,15.83
2019-03-04T14:06:43.391Z,15.91
2019-03-04T14:09:19.418Z,15.94
2019-03-04T14:11:52.153Z,15.95
2019-03-04T14:14:26.075Z,15.96
2019-03-04T14:16:57.854Z,15.95
2019-03-04T14:19:29.775Z,15.95
2019-03-04T14:22:01.813Z,15.92
2019-03-04T14:24:34.510Z,15.92
2019-03-04T14:27:06.261Z,15.92
2019-03-04T14:29:38.868Z,15.93
2019-03-04T14:32:10.555Z,15.93
2019-03-04T14:34:42.252Z,15.95
2019-03-04T14:37:14.227Z,16.00
2019-03-04T14:39:45.975Z,16.08
2019-03-04T14:42:17.707Z,16.16
2019-03-04T14:44:50.035Z,16.18
2019-03-04T14:47:22.233Z,16.14
2019-03-04T14:49:54.056Z,16.05
2019-03-04T14:52:25.760Z,15.87
2019-03-04T14:54:57.651Z,15.47
2019-03-04T14:57:29.327Z,15.01
2019-03-04T15:00:01.653Z,14.50
2019-03-04T15:02:33.324Z,14.06
2019-03-04T15:05:05.618Z,13.67
2019-03-04T15:07:37.325Z,13.32
2019-03-04T15:10:09.225Z,12.98
2019-03-04T15:12:42.129Z,12.75
2019-03-04T15:15:15.003Z,12.59
2019-03-04T15:17:46.909Z,12.49
2019-03-04T15:20:20.853Z,12.41
2019-03-04T15:22:52.928Z,12.34
2019-03-04T15:25:28.979Z,12.30
2019-03-04T15:28:15.742Z,12.26
2019-03-04T15:30:49.771Z,12.27
2019-03-04T15:33:21.579Z,12.31
2019-03-04T15:35:53.267Z,12.34
2019-03-04T15:38:25.215Z,12.37
2019-03-04T15:40:57.077Z,12.40
2019-03-04T15:43:30.470Z,12.44
2019-03-04T15:46:03.145Z,12.50
2019-03-04T15:48:35.451Z,12.56
2019-03-04T15:51:07.274Z,12.65
2019-03-04T15:53:39.131Z,12.71
2019-03-04T15:56:11.319Z,12.73
2019-03-04T15:58:43.079Z,12.76
2019-03-04T16:01:15.595Z,12.77
2019-03-04T16:03:47.462Z,12.79
2019-03-04T16:06:19.146Z,12.80
2019-03-04T16:08:51.013Z,12.80
2019-03-04T16:11:23.111Z,12.78
2019-03-04T16:13:56.182Z,12.72
2019-03-04T16:16:28.055Z,12.67
2019-03-04T16:18:59.880Z,12.65
2019-03-04T16:21:31.532Z,12.66
2019-03-04T16:24:03.257Z,12.65
2019-03-04T16:26:35.514Z,12.60
2019-03-04T16:29:07.524Z,12.51
2019-03-04T16:31:39.215Z,12.42
2019-03-04T16:34:11.219Z,12.40
2019-03-04T16:36:42.909Z,12.35
2019-03-04T16:39:14.571Z,12.32
2019-03-04T16:41:46.314Z,12.28
2019-03-04T16:44:18.361Z,12.24
2019-03-04T16:46:50.489Z,12.21
2019-03-04T16:49:22.468Z,12.18
2019-03-04T16:51:54.124Z,12.16
2019-03-04T16:54:26.102Z,12.16
2019-03-04T16:56:57.815Z,12.16
2019-03-04T16:59:29.487Z,12.13
2019-03-04T17:02:01.370Z,12.10
2019-03-04T17:04:33.487Z,12.08
2019-03-04T17:07:05.887Z,12.06
2019-03-04T17:09:37.769Z,12.06
2019-03-04T17:12:10.476Z,12.03
2019-03-04T17:14:42.222Z,11.99
2019-03-04T17:17:15.377Z,11.92
2019-03-04T17:19:47.403Z,11.85
2019-03-04T17:22:19.463Z,11.78
2019-03-04T17:24:51.282Z,11.70
2019-03-04T17:27:22.992Z,11.63
2019-03-04T17:29:54.677Z,11.57
2019-03-04T17:32:26.340Z,11.52
2019-03-04T17:34:58.140Z,11.47
2019-03-04T17:37:29.792Z,11.42
2019-03-04T17:40:01.689Z,11.39
2019-03-04T17:42:33.522Z,11.36
2019-03-04T17:45:05.238Z,11.32
2019-03-04T17:47:37.524Z,11.26
2019-03-04T17:50:12.593Z,11.21
2019-03-04T17:52:44.388Z,11.17
2019-03-04T17:55:17.436Z,11.16
2019-03-04T17:57:50.719Z,11.15
2019-03-04T18:00:22.551Z,11.16
2019-03-04T18:02:54.272Z,11.17
2019-03-04T18:05:26.343Z,11.18
2019-03-04T18:07:58.264Z,11.23
2019-03-04T18:10:30.453Z,11.26
2019-03-04T18:13:02.608Z,11.26
2019-03-04T18:15:36.171Z,11.41
2019-03-04T18:18:07.912Z,11.26
2019-03-04T18:20:39.651Z,11.21
2019-03-04T18:23:11.693Z,11.17
2019-03-04T18:25:51.452Z,11.12
2019-03-04T18:28:41.181Z,11.09
2019-03-04T18:31:43.854Z,11.08
2019-03-04T18:35:25.017Z,11.07
2019-03-04T18:38:46.681Z,11.10
2019-03-04T18:41:43.574Z,11.10
2019-03-04T18:45:18.607Z,11.06
2019-03-04T18:48:59.759Z,11.02
2019-03-04T18:51:33.311Z,11.02
2019-03-04T18:54:15.491Z,11.00
2019-03-04T18:56:47.611Z,10.97
2019-03-04T18:59:20.312Z,10.93
2019-03-04T19:01:52.367Z,10.91
2019-03-04T19:04:24.096Z,10.91
2019-03-04T19:06:55.779Z,10.89
2019-03-04T19:09:27.626Z,10.88
2019-03-04T19:11:59.336Z,10.86
2019-03-04T19:14:31.156Z,10.85
2019-03-04T19:17:02.852Z,10.86
2019-03-04T19:19:34.616Z,10.86
2019-03-04T19:22:06.592Z,10.85
2019-03-04T19:24:38.498Z,10.85
2019-03-04T19:27:10.216Z,10.85
2019-03-04T19:29:42.076Z,10.83
2019-03-04T19:32:13.852Z,10.83
2019-03-04T19:34:45.551Z,10.81
2019-03-04T19:37:17.491Z,10.81
2019-03-04T19:39:49.453Z,10.80
2019-03-04T19:42:21.227Z,10.78
2019-03-04T19:44:53.064Z,10.78
2019-03-04T19:47:25.344Z,10.76
2019-03-04T19:49:57.133Z,10.74
2019-03-04T19:52:28.932Z,10.73
2019-03-04T19:55:00.755Z,10.73
2019-03-04T19:57:32.681Z,10.73
2019-03-04T20:00:05.303Z,10.75
2019-03-04T20:02:37.100Z,10.75
2019-03-04T20:05:09.135Z,10.74
2019-03-04T20:07:41.313Z,10.76
2019-03-04T20:10:13.803Z,10.77
2019-03-04T20:12:45.651Z,10.77
2019-03-04T20:15:22.736Z,10.77
2019-03-04T20:17:56.589Z,10.78
2019-03-04T20:20:28.460Z,10.78
2019-03-04T20:23:00.282Z,10.75
2019-03-04T20:25:32.118Z,10.72
2019-03-04T20:28:03.911Z,10.69
2019-03-04T20:30:35.690Z,10.67
2019-03-04T20:33:07.594Z,10.65
2019-03-04T20:35:39.550Z,10.65
2019-03-04T20:38:11.662Z,10.66
2019-03-04T20:40:43.449Z,10.67
2019-03-04T20:43:15.395Z,10.69
2019-03-04T20:45:47.331Z,10.70
2019-03-04T20:48:19.883Z,10.72
2019-03-04T20:50:51.697Z,10.72
2019-03-04T20:53:23.900Z,10.72
2019-03-04T20:55:55.751Z,10.71
2019-03-04T20:58:27.703Z,10.68
2019-03-04T21:00:59.445Z,10.62
2019-03-04T21:03:35.147Z,10.56
2019-03-04T21:06:05.642Z,10.57
2019-03-04T21:08:37.370Z,10.56
2019-03-04T21:11:09.676Z,10.53
2019-03-04T21:13:42.003Z,10.49
2019-03-04T21:16:13.714Z,10.45
2019-03-04T21:18:45.449Z,10.42
2019-03-04T21:21:17.529Z,10.40
2019-03-04T21:23:49.718Z,10.35
2019-03-04T21:26:28.015Z,10.30
2019-03-04T21:29:43.931Z,10.23
2019-03-04T21:33:08.039Z,10.17
2019-03-04T21:36:37.157Z,10.14
2019-03-04T21:39:09.753Z,10.12
2019-03-04T21:42:06.407Z,10.11
2019-03-04T21:45:25.782Z,10.13
2019-03-04T21:48:10.099Z,10.17
2019-03-04T21:51:25.961Z,10.16
2019-03-04T21:53:57.684Z,10.17
2019-03-04T21:57:17.226Z,10.15
2019-03-04T21:59:49.099Z,10.15
2019-03-04T22:02:59.090Z,10.14
2019-03-04T22:05:31.116Z,10.14
2019-03-04T22:08:02.759Z,10.13
2019-03-04T22:10:34.711Z,10.16
2019-03-04T22:13:06.769Z,10.17
2019-03-04T22:15:39.585Z,10.20
2019-03-04T22:18:13.087Z,10.21
2019-03-04T22:20:46.515Z,10.23
2019-03-04T22:23:18.319Z,10.24
2019-03-04T22:25:49.983Z,10.26
2019-03-04T22:28:21.716Z,10.28
2019-03-04T22:30:53.427Z,10.31
2019-03-04T22:33:27.966Z,10.30
2019-03-04T22:35:59.791Z,10.30
2019-03-04T22:39:10.775Z,10.31
2019-03-04T22:41:42.791Z,10.31
2019-03-04T22:44:14.499Z,10.32
2019-03-04T22:46:47.154Z,10.34
2019-03-04T22:49:19.454Z,10.36
2019-03-04T22:52:03.916Z,10.38
2019-03-04T22:54:35.622Z,10.42
2019-03-04T22:57:07.444Z,10.43
2019-03-04T22:59:39.096Z,10.44
2019-03-04T23:02:12.107Z,10.44
2019-03-04T23:04:54.541Z,10.41
2019-03-04T23:07:36.210Z,10.38
2019-03-04T23:10:32.679Z,10.38
2019-03-04T23:13:46.595Z,10.35
2019-03-04T23:16:22.659Z,10.38
2019-03-04T23:18:54.676Z,10.40
2019-03-04T23:21:26.745Z,10.42
2019-03-04T23:23:58.564Z,10.46
2019-03-04T23:26:30.174Z,10.48
2019-03-04T23:29:01.826Z,10.47
2019-03-04T23:31:33.491Z,10.45
2019-03-04T23:34:05.429Z,10.44
2019-03-04T23:36:37.084Z,10.46
2019-03-04T23:39:09.934Z,10.48
2019-03-04T23:41:41.570Z,10.49
2019-03-04T23:44:13.193Z,10.53
2019-03-04T23:46:44.814Z,10.55
2019-03-04T23:49:16.836Z,10.57
2019-03-04T23:51:48.719Z,10.58
2019-03-04T23:54:20.430Z,10.58
2019-03-04T23:56:52.085Z,10.60
2019-03-04T23:59:23.760Z,10.62
